createdAt,value
2023-02-03T00:02:59.457Z,-2.28
2023-02-03T00:10:21.406Z,-2.30
2023-02-03T00:17:41.059Z,-2.31
2023-02-03T00:24:59.736Z,-2.27
2023-02-03T00:32:18.040Z,-2.16
2023-02-03T00:39:39.399Z,-2.15
2023-02-03T00:46:57.673Z,-2.09
2023-02-03T00:54:15.921Z,-2.15
2023-02-03T01:01:35.918Z,-2.16
2023-02-03T01:08:54.399Z,-2.12
2023-02-03T01:16:14.926Z,-2.03
2023-02-03T01:23:35.695Z,-2.01
2023-02-03T01:30:54.085Z,-2.00
2023-02-03T01:38:12.277Z,-2.00
2023-02-03T01:45:34.094Z,-1.95
2023-02-03T01:52:54.397Z,-1.90
2023-02-03T02:00:13.835Z,-1.91
2023-02-03T02:07:34.787Z,-1.87
2023-02-03T02:14:53.543Z,-1.92
2023-02-03T02:22:16.289Z,-1.92
2023-02-03T02:30:11.114Z,-1.90
2023-02-03T02:37:38.372Z,-1.77
2023-02-03T02:45:00.928Z,-1.77
2023-02-03T02:52:20.481Z,-1.70
2023-02-03T02:59:40.297Z,-1.64
2023-02-03T03:07:01.652Z,-1.56
2023-02-03T03:14:22.642Z,-1.66
2023-02-03T03:21:46.362Z,-1.59
2023-02-03T03:29:09.249Z,-1.60
2023-02-03T03:36:30.114Z,-1.61
2023-02-03T03:43:51.026Z,-1.47
2023-02-03T03:51:13.202Z,-1.39
2023-02-03T03:58:32.904Z,-1.37
2023-02-03T04:05:52.658Z,-1.31
2023-02-03T04:13:11.985Z,-1.30
2023-02-03T04:20:30.579Z,-1.31
2023-02-03T04:27:50.179Z,-1.33
2023-02-03T04:35:09.342Z,-1.33
2023-02-03T04:42:28.170Z,-1.33
2023-02-03T04:49:47.978Z,-1.24
2023-02-03T04:57:07.015Z,-1.01
2023-02-03T05:04:25.489Z,-0.91
2023-02-03T05:11:46.251Z,-0.93
2023-02-03T05:19:04.650Z,-0.87
2023-02-03T05:26:22.895Z,-0.95
2023-02-03T05:33:42.570Z,-0.93
2023-02-03T05:41:21.211Z,-0.91
2023-02-03T05:48:39.464Z,-1.00
2023-02-03T05:55:58.991Z,-1.06
2023-02-03T06:03:17.216Z,-1.12
2023-02-03T06:10:36.017Z,-1.16
2023-02-03T06:17:55.700Z,-1.22
2023-02-03T06:25:14.467Z,-1.15
2023-02-03T06:32:33.042Z,-1.12
2023-02-03T06:39:52.558Z,-1.02
2023-02-03T06:47:10.731Z,-1.00
2023-02-03T06:54:28.995Z,-0.91
2023-02-03T07:01:48.785Z,-0.79
2023-02-03T07:09:08.449Z,-0.68
2023-02-03T07:16:27.694Z,-0.60
2023-02-03T07:23:48.435Z,-0.57
2023-02-03T07:31:08.376Z,-0.56
2023-02-03T07:38:27.605Z,-0.51
2023-02-03T07:45:47.542Z,-0.49
2023-02-03T07:53:06.022Z,-0.53
2023-02-03T08:00:24.895Z,-0.50
2023-02-03T08:07:44.677Z,-0.50
2023-02-03T08:15:02.891Z,-0.55
2023-02-03T08:22:21.090Z,-0.47
2023-02-03T08:29:40.856Z,-0.46
2023-02-03T08:36:59.018Z,-0.46
2023-02-03T08:44:18.714Z,-0.39
2023-02-03T08:51:38.720Z,-0.34
2023-02-03T08:58:57.048Z,-0.35
2023-02-03T09:06:16.862Z,-0.34
2023-02-03T09:13:36.845Z,-0.05
2023-02-03T09:21:01.953Z,0.15
2023-02-03T09:28:20.369Z,0.23
2023-02-03T09:35:40.610Z,0.37
2023-02-03T09:43:21.276Z,0.48
2023-02-03T09:50:42.799Z,0.54
2023-02-03T09:58:05.082Z,0.63
2023-02-03T10:05:31.442Z,0.69
2023-02-03T10:13:00.060Z,0.88
2023-02-03T10:20:21.854Z,1.00
2023-02-03T10:27:40.169Z,1.13
2023-02-03T10:34:59.813Z,1.19
2023-02-03T10:42:18.249Z,1.22
2023-02-03T10:49:36.497Z,1.15
2023-02-03T10:56:57.663Z,1.21
2023-02-03T11:04:26.938Z,1.32
2023-02-03T11:11:45.113Z,1.32
2023-02-03T11:19:05.788Z,1.37
2023-02-03T11:26:27.562Z,1.46
2023-02-03T11:33:49.462Z,1.69
2023-02-03T11:41:17.507Z,1.72
2023-02-03T11:48:38.308Z,1.86
2023-02-03T11:56:14.323Z,2.14
2023-02-03T12:04:05.343Z,2.36
2023-02-03T12:11:35.148Z,2.52
2023-02-03T12:19:02.618Z,2.71
2023-02-03T12:26:23.402Z,3.06
2023-02-03T12:33:46.186Z,3.38
2023-02-03T12:41:09.028Z,3.64
2023-02-03T12:48:30.655Z,3.85
2023-02-03T12:55:55.945Z,4.07
2023-02-03T13:03:18.353Z,4.08
2023-02-03T13:10:39.919Z,4.14
2023-02-03T13:18:04.508Z,4.18
2023-02-03T13:25:25.842Z,4.22
2023-02-03T13:33:04.497Z,4.38
2023-02-03T13:40:35.829Z,4.48
2023-02-03T13:47:56.508Z,4.56
2023-02-03T13:55:30.342Z,4.77
2023-02-03T14:02:55.690Z,4.71
2023-02-03T14:10:22.063Z,4.73
2023-02-03T14:18:21.671Z,4.59
2023-02-03T14:25:43.454Z,4.45
2023-02-03T14:33:03.448Z,4.42
2023-02-03T14:49:44.046Z,4.31
2023-02-03T14:57:19.881Z,4.25
2023-02-03T15:04:39.634Z,4.26
2023-02-03T15:11:57.862Z,4.21
2023-02-03T15:19:18.281Z,4.24
2023-02-03T15:26:46.879Z,4.34
2023-02-03T15:34:09.005Z,4.30
2023-02-03T15:41:27.845Z,4.29
2023-02-03T15:48:51.944Z,4.39
2023-02-03T15:56:19.172Z,4.29
2023-02-03T16:03:40.902Z,4.37
2023-02-03T16:11:00.552Z,4.37
2023-02-03T16:18:19.352Z,4.36
2023-02-03T16:25:37.826Z,4.42
2023-02-03T16:33:22.056Z,4.39
2023-02-03T16:40:57.575Z,4.22
2023-02-03T16:48:34.675Z,3.97
2023-02-03T16:55:54.393Z,3.96
2023-02-03T17:03:14.196Z,3.86
2023-02-03T17:10:34.634Z,3.79
2023-02-03T17:17:52.900Z,3.82
2023-02-03T17:25:11.280Z,3.84
2023-02-03T17:32:31.139Z,3.91
2023-02-03T17:55:02.194Z,3.87
2023-02-03T18:02:20.629Z,3.86
2023-02-03T18:09:39.048Z,3.76
2023-02-03T18:16:58.831Z,3.64
2023-02-03T18:24:18.615Z,3.70
2023-02-03T18:31:37.851Z,3.69
2023-02-03T18:38:57.534Z,3.72
2023-02-03T18:46:19.788Z,3.76
2023-02-03T18:53:38.502Z,3.82
2023-02-03T19:00:59.164Z,3.85
2023-02-03T19:08:17.722Z,3.95
2023-02-03T19:15:36.001Z,3.95
2023-02-03T19:22:56.888Z,3.94
2023-02-03T19:30:15.268Z,3.78
2023-02-03T19:37:33.933Z,3.72
2023-02-03T19:44:53.686Z,3.67
2023-02-03T19:52:12.642Z,3.74
2023-02-03T19:59:30.854Z,3.92
2023-02-03T20:06:50.524Z,3.97
2023-02-03T20:14:08.640Z,3.86
2023-02-03T20:21:26.778Z,3.87
2023-02-03T20:28:47.461Z,3.89
2023-02-03T20:36:06.591Z,3.97
2023-02-03T20:43:26.442Z,3.97
2023-02-03T20:50:47.521Z,3.95
2023-02-03T20:58:16.636Z,3.97
2023-02-03T21:05:37.548Z,3.89
2023-02-03T21:12:57.774Z,3.84
2023-02-03T21:20:26.123Z,3.77
2023-02-03T21:27:48.088Z,3.77
2023-02-03T21:35:24.005Z,3.70
2023-02-03T21:42:42.484Z,3.61
2023-02-03T21:50:01.779Z,3.76
2023-02-03T21:57:22.092Z,3.63
2023-02-03T22:04:40.225Z,3.60
2023-02-03T22:11:59.975Z,3.63
2023-02-03T22:19:20.812Z,3.70
2023-02-03T22:26:39.052Z,3.70
2023-02-03T22:33:57.436Z,3.76
2023-02-03T22:41:17.144Z,3.89
2023-02-03T22:48:35.393Z,3.81
2023-02-03T22:55:53.601Z,3.87
2023-02-03T23:03:13.276Z,3.88
2023-02-03T23:10:32.105Z,3.93
2023-02-03T23:17:50.532Z,3.82
2023-02-03T23:25:10.792Z,3.73
2023-02-03T23:32:29.182Z,3.63
2023-02-03T23:39:47.456Z,3.48
2023-02-03T23:47:07.182Z,3.17
2023-02-03T23:54:25.615Z,2.93
